createdAt,value
2018-09-05T00:00:01.955Z,96.92
2018-09-05T00:05:01.263Z,97.15
2018-09-05T00:10:01.535Z,97.11
2018-09-05T00:15:01.928Z,97.06
2018-09-05T00:20:01.257Z,97.25
2018-09-05T00:25:01.577Z,97.29
2018-09-05T00:30:01.821Z,97.33
2018-09-05T00:35:02.221Z,97.43
2018-09-05T00:40:01.679Z,97.48
2018-09-05T00:45:02.009Z,97.51
2018-09-05T00:50:01.248Z,97.61
2018-09-05T00:55:01.559Z,97.69
2018-09-05T01:00:01.849Z,97.7
2018-09-05T01:05:01.270Z,97.79
2018-09-05T01:10:02.183Z,97.68
2018-09-05T01:15:01.426Z,97.62
2018-09-05T01:20:01.892Z,97.63
2018-09-05T01:25:01.261Z,97.66
2018-09-05T01:30:01.553Z,97.65
2018-09-05T01:35:02.149Z,97.74
2018-09-05T01:40:01.485Z,97.81
2018-09-05T01:45:01.772Z,97.99
2018-09-05T01:50:02.096Z,97.99
2018-09-05T01:55:01.541Z,98.11
2018-09-05T02:00:01.790Z,97.89
2018-09-05T02:05:02.060Z,95.96
2018-09-05T02:10:01.360Z,96.02
2018-09-05T02:15:01.696Z,96.06
2018-09-05T02:20:02.181Z,97.64
2018-09-05T02:25:01.602Z,98.26
2018-09-05T02:30:02.039Z,98.37
2018-09-05T02:35:01.506Z,97.45
2018-09-05T02:40:01.775Z,98.21
2018-09-05T02:45:02.091Z,96.12
2018-09-05T02:50:01.353Z,98.26
2018-09-05T02:55:01.610Z,96.25
2018-09-05T03:00:01.900Z,97.79
2018-09-05T03:05:01.200Z,98.45
2018-09-05T03:10:01.462Z,98.01
2018-09-05T03:15:01.744Z,98.57
2018-09-05T03:20:02.191Z,98.07
2018-09-05T03:25:01.553Z,96.61
2018-09-05T03:30:01.797Z,96.49
2018-09-05T03:35:02.276Z,98.34
2018-09-05T03:40:01.636Z,98.38
2018-09-05T03:45:01.872Z,98.27
2018-09-05T03:50:01.188Z,96.02
2018-09-05T03:55:01.500Z,97.53
2018-09-05T04:00:01.752Z,97.93
2018-09-05T04:05:02.289Z,98.23
2018-09-05T04:10:01.702Z,98.13
2018-09-05T04:15:02.006Z,96.05
2018-09-05T04:20:01.290Z,97.6
2018-09-05T04:25:01.724Z,97.41
2018-09-05T04:30:02.232Z,97.89
2018-09-05T04:35:01.659Z,98.12
2018-09-05T04:40:01.912Z,98.23
2018-09-05T04:45:01.262Z,98.41
2018-09-05T04:50:01.770Z,97.47
2018-09-05T04:55:02.070Z,98.01
2018-09-05T05:00:01.309Z,98.24
2018-09-05T05:05:01.738Z,98.19
2018-09-05T05:10:02.073Z,97.44
2018-09-05T05:15:01.351Z,97.85
2018-09-05T05:20:01.739Z,97.78
2018-09-05T05:25:02.021Z,97.79
2018-09-05T05:30:01.285Z,97.78
2018-09-05T05:35:01.594Z,97.18
2018-09-05T05:40:01.943Z,98.09
2018-09-05T05:45:01.261Z,98.02
2018-09-05T05:50:01.671Z,98.02
2018-09-05T05:55:02.090Z,97.53
2018-09-05T06:00:01.437Z,97.05
2018-09-05T06:05:01.937Z,97.73
2018-09-05T06:10:01.268Z,97.45
2018-09-05T06:15:01.549Z,97.4
2018-09-05T06:20:01.996Z,96.99
2018-09-05T06:25:01.402Z,96.94
2018-09-05T06:30:01.749Z,96.95
2018-09-05T06:35:02.200Z,96.54
2018-09-05T06:40:01.569Z,96.14
2018-09-05T06:45:01.954Z,95.6
2018-09-05T06:50:01.407Z,95.42
2018-09-05T06:55:01.717Z,94.86
2018-09-05T07:00:02.111Z,94.15
2018-09-05T07:05:01.422Z,92.77
2018-09-05T07:10:01.873Z,92.73
2018-09-05T07:15:01.303Z,92.45
2018-09-05T07:20:01.581Z,91.51
2018-09-05T07:25:02.075Z,88.78
2018-09-05T07:30:01.615Z,87.63
2018-09-05T07:35:01.987Z,86.53
2018-09-05T07:40:01.356Z,84.42
2018-09-05T07:45:01.649Z,84.72
2018-09-05T07:50:02.009Z,81.91
2018-09-05T07:55:01.359Z,80.96
2018-09-05T08:00:01.629Z,80.32
2018-09-05T08:05:02.041Z,79.15
2018-09-05T08:10:01.381Z,77.31
2018-09-05T08:15:01.745Z,76.74
2018-09-05T08:20:02.108Z,72.48
2018-09-05T08:25:01.456Z,71.79
2018-09-05T08:30:01.867Z,68.89
2018-09-05T08:35:01.978Z,68.44
2018-09-05T08:40:01.849Z,68.02
2018-09-05T08:45:02.474Z,67.49
2018-09-05T08:50:02.307Z,69.01
2018-09-05T08:55:01.819Z,67.84
2018-09-05T09:00:02.117Z,69.21
2018-09-05T09:05:01.616Z,70.79
2018-09-05T09:10:02.139Z,72.7
2018-09-05T09:15:01.396Z,74.46
2018-09-05T09:20:01.719Z,73.74
2018-09-05T09:25:02.058Z,71.11
2018-09-05T09:30:01.326Z,71.95
2018-09-05T09:35:01.838Z,72.7
2018-09-05T09:40:01.168Z,72.39
2018-09-05T09:45:01.477Z,72.51
2018-09-05T09:50:01.862Z,70.63
2018-09-05T09:55:01.165Z,70.3
2018-09-05T10:00:01.416Z,72.24
2018-09-05T10:05:01.930Z,71.57
2018-09-05T10:10:01.818Z,69.73
2018-09-05T10:15:02.006Z,69.52
2018-09-05T10:20:01.492Z,68.15
2018-09-05T10:25:01.826Z,65.58
2018-09-05T10:30:02.157Z,67.11
2018-09-05T10:35:01.435Z,66.66
2018-09-05T10:40:01.733Z,66.25
2018-09-05T10:45:02.009Z,65.06
2018-09-05T10:50:01.255Z,65.38
2018-09-05T10:55:01.539Z,61.92
2018-09-05T11:00:01.914Z,63.1
2018-09-05T11:05:01.225Z,63.97
2018-09-05T11:10:01.511Z,61.04
2018-09-05T11:15:01.749Z,61.51
2018-09-05T11:20:02.171Z,61.86
2018-09-05T11:25:01.559Z,61.45
2018-09-05T11:30:01.839Z,63.14
2018-09-05T11:35:02.328Z,61.6
2018-09-05T11:40:01.692Z,60.43
2018-09-05T11:45:01.928Z,58.41
2018-09-05T11:50:01.174Z,60.04
2018-09-05T11:55:01.435Z,58.14
2018-09-05T12:00:01.772Z,60.7
2018-09-05T12:05:02.257Z,58.61
2018-09-05T12:10:01.747Z,57.29
2018-09-05T12:15:01.994Z,56.01
2018-09-05T12:20:01.327Z,56.48
2018-09-05T12:25:01.593Z,56.23
2018-09-05T12:30:01.833Z,55.08
2018-09-05T12:35:02.317Z,56.34
2018-09-05T12:40:01.670Z,56.41
2018-09-05T12:45:01.948Z,56.28
2018-09-05T12:50:01.215Z,55.53
2018-09-05T12:55:01.531Z,55.6
2018-09-05T13:00:01.771Z,57.48
2018-09-05T13:05:02.397Z,56.85
2018-09-05T13:10:01.840Z,57.82
2018-09-05T13:15:02.167Z,54.83
2018-09-05T13:20:01.558Z,54.98
2018-09-05T13:25:01.728Z,54.36
2018-09-05T13:30:01.982Z,53.28
2018-09-05T13:35:01.291Z,54.16
2018-09-05T13:40:01.602Z,53.28
2018-09-05T13:45:02.052Z,54.7
2018-09-05T13:50:01.491Z,53.47
2018-09-05T13:55:01.881Z,53.2
2018-09-05T14:00:02.156Z,54.4
2018-09-05T14:05:01.437Z,53.37
2018-09-05T14:10:01.816Z,55.2
2018-09-05T14:15:02.109Z,55.13
2018-09-05T14:20:01.361Z,55.5
2018-09-05T14:25:01.629Z,53.51
2018-09-05T14:30:01.898Z,54.86
2018-09-05T14:35:01.259Z,56.76
2018-09-05T14:40:01.693Z,56
2018-09-05T14:45:02.033Z,52.71
2018-09-05T14:50:01.313Z,53.8
2018-09-05T14:55:01.687Z,56.44
2018-09-05T15:00:01.935Z,58.72
2018-09-05T15:05:01.270Z,59.78
2018-09-05T15:10:01.570Z,57.59
2018-09-05T15:15:01.837Z,58.34
2018-09-05T15:20:02.265Z,57.92
2018-09-05T15:25:01.715Z,55.83
2018-09-05T15:30:02.035Z,57.59
2018-09-05T15:35:01.335Z,57.24
2018-09-05T15:40:01.618Z,57.19
2018-09-05T15:45:01.868Z,58.19
2018-09-05T15:50:02.387Z,60.01
2018-09-05T15:55:01.828Z,60.09
2018-09-05T16:00:02.080Z,62.18
2018-09-05T16:05:01.431Z,60.88
2018-09-05T16:10:01.775Z,61.79
2018-09-05T16:15:02.101Z,62.59
2018-09-05T16:20:01.454Z,64.1
2018-09-05T16:25:01.733Z,63.39
2018-09-05T16:30:02.017Z,64.53
2018-09-05T16:35:01.300Z,63.49
2018-09-05T16:40:01.639Z,64.62
2018-09-05T16:45:01.922Z,65.27
2018-09-05T16:50:01.181Z,65.7
2018-09-05T16:55:01.480Z,67.86
2018-09-05T17:00:01.736Z,68.33
2018-09-05T17:05:02.213Z,67.09
2018-09-05T17:10:01.551Z,67.35
2018-09-05T17:15:01.876Z,66.43
2018-09-05T17:20:01.173Z,67.08
2018-09-05T17:25:01.460Z,67.37
2018-09-05T17:30:01.741Z,67.6
2018-09-05T17:35:02.198Z,69.4
2018-09-05T17:40:01.558Z,68.83
2018-09-05T17:45:01.844Z,69.1
2018-09-05T17:50:02.175Z,69.86
2018-09-05T17:55:01.512Z,70.32
2018-09-05T18:00:01.766Z,70.96
2018-09-05T18:05:02.311Z,71.55
2018-09-05T18:10:02.089Z,70.7
2018-09-05T18:15:01.521Z,71.2
2018-09-05T18:20:01.968Z,72.32
2018-09-05T18:25:01.374Z,73.04
2018-09-05T18:30:01.672Z,71.75
2018-09-05T18:35:02.064Z,73.04
2018-09-05T18:40:01.398Z,74.09
2018-09-05T18:45:01.747Z,74.53
2018-09-05T18:50:02.137Z,74.01
2018-09-05T18:55:01.700Z,75.48
2018-09-05T19:00:02.166Z,76.35
2018-09-05T19:05:01.513Z,76.2
2018-09-05T19:10:01.871Z,76.45
2018-09-05T19:15:02.132Z,77.12
2018-09-05T19:20:01.465Z,77.84
2018-09-05T19:25:01.734Z,78.93
2018-09-05T19:30:02.150Z,78.53
2018-09-05T19:35:01.492Z,79.96
2018-09-05T19:40:01.947Z,79.69
2018-09-05T19:45:01.247Z,80.01
2018-09-05T19:50:01.561Z,78.99
2018-09-05T19:55:01.958Z,79.87
2018-09-05T20:00:01.344Z,80.06
2018-09-05T20:05:01.788Z,80.5
2018-09-05T20:10:02.224Z,80.05
2018-09-05T20:15:02.391Z,80.69
2018-09-05T20:20:01.903Z,81.6
2018-09-05T20:25:01.242Z,82.61
2018-09-05T20:30:01.651Z,83.27
2018-09-05T20:35:02.172Z,83.86
2018-09-05T20:40:01.572Z,84.22
2018-09-05T20:45:01.938Z,84.56
2018-09-05T20:50:01.273Z,84.82
2018-09-05T20:55:01.624Z,85.04
2018-09-05T21:00:01.988Z,85.46
2018-09-05T21:05:01.420Z,85.87
2018-09-05T21:10:01.942Z,85.54
2018-09-05T21:15:01.259Z,85.77
2018-09-05T21:20:01.549Z,86.29
2018-09-05T21:25:01.998Z,86.58
2018-09-05T21:30:01.339Z,87.21
2018-09-05T21:35:01.827Z,87.62
2018-09-05T21:40:02.347Z,88.3
2018-09-05T21:45:01.785Z,88.71
2018-09-05T21:50:02.199Z,88.76
2018-09-05T21:55:01.476Z,88.46
2018-09-05T22:00:01.902Z,88.5
2018-09-05T22:05:01.225Z,88.78
2018-09-05T22:10:01.592Z,88.75
2018-09-05T22:15:02.099Z,88.62
2018-09-05T22:20:01.501Z,89.01
2018-09-05T22:25:02.008Z,89.15
2018-09-05T22:30:01.350Z,89.33
2018-09-05T22:35:01.768Z,89.43
2018-09-05T22:40:02.204Z,89.82
2018-09-05T22:45:01.681Z,89.92
2018-09-05T22:50:02.086Z,89.78
2018-09-05T22:55:01.418Z,89.78
2018-09-05T23:00:01.901Z,90.13
2018-09-05T23:05:01.298Z,90.39
2018-09-05T23:10:01.609Z,90.39
2018-09-05T23:15:02.103Z,90.19
2018-09-05T23:20:01.383Z,90.65
2018-09-05T23:25:01.821Z,90.66
2018-09-05T23:30:02.342Z,90.81
2018-09-05T23:35:01.925Z,91.04
2018-09-05T23:40:01.278Z,91.13
2018-09-05T23:45:01.628Z,91.31
2018-09-05T23:50:02.303Z,91.61
2018-09-05T23:55:01.679Z,91.64
